createdAt,value
2018-10-21T00:01:44.870Z,29.13
2018-10-21T00:04:16.510Z,25.10
2018-10-21T00:06:46.958Z,31.40
2018-10-21T00:09:16.090Z,27.23
2018-10-21T00:11:45.140Z,25.50
2018-10-21T00:14:14.269Z,24.77
2018-10-21T00:16:44.155Z,26.00
2018-10-21T00:19:13.284Z,26.93
2018-10-21T00:21:42.589Z,24.13
2018-10-21T00:24:11.884Z,24.53
2018-10-21T00:26:42.516Z,25.87
2018-10-21T00:29:11.948Z,26.13
2018-10-21T00:31:41.044Z,24.07
2018-10-21T00:34:10.978Z,23.47
2018-10-21T00:36:40.608Z,24.90
2018-10-21T00:39:12.111Z,22.53
2018-10-21T00:41:41.486Z,25.43
2018-10-21T00:44:11.130Z,22.90
2018-10-21T00:46:40.358Z,21.93
2018-10-21T00:49:10.001Z,21.50
2018-10-21T00:51:39.403Z,21.07
2018-10-21T00:54:15.606Z,21.60
2018-10-21T00:56:46.316Z,23.67
2018-10-21T00:59:15.540Z,23.73
2018-10-21T01:01:44.782Z,22.30
2018-10-21T01:04:15.455Z,26.20
2018-10-21T01:06:44.754Z,25.90
2018-10-21T01:09:14.333Z,23.30
2018-10-21T01:11:43.852Z,26.23
2018-10-21T01:14:13.042Z,25.13
2018-10-21T01:16:42.284Z,23.47
2018-10-21T01:19:11.439Z,23.23
2018-10-21T01:21:40.792Z,24.50
2018-10-21T01:24:09.910Z,24.37
2018-10-21T01:26:40.548Z,22.67
2018-10-21T01:29:10.559Z,24.37
2018-10-21T01:31:39.650Z,24.27
2018-10-21T01:34:08.744Z,23.83
2018-10-21T01:36:38.654Z,23.37
2018-10-21T01:39:10.616Z,23.53
2018-10-21T01:41:40.208Z,26.17
2018-10-21T01:44:09.877Z,29.07
2018-10-21T01:46:38.974Z,25.47
2018-10-21T01:49:09.694Z,24.57
2018-10-21T01:51:40.176Z,26.03
2018-10-21T01:54:09.215Z,27.47
2018-10-21T01:56:38.373Z,26.73
2018-10-21T01:59:07.580Z,24.53
2018-10-21T02:01:37.783Z,24.33
2018-10-21T02:04:06.992Z,26.27
2018-10-21T02:06:36.043Z,25.90
2018-10-21T02:09:06.665Z,27.33
2018-10-21T02:11:35.796Z,25.17
2018-10-21T02:14:05.262Z,28.00
2018-10-21T02:16:34.785Z,30.87
2018-10-21T02:19:05.047Z,31.20
2018-10-21T02:21:34.196Z,33.90
2018-10-21T02:24:03.287Z,36.80
2018-10-21T02:26:32.491Z,34.80
2018-10-21T02:29:01.692Z,33.57
2018-10-21T02:31:30.758Z,33.33
2018-10-21T02:34:01.034Z,32.97
2018-10-21T02:36:31.064Z,34.43
2018-10-21T02:39:00.434Z,31.20
2018-10-21T02:41:41.704Z,30.80
2018-10-21T02:44:14.090Z,32.43
2018-10-21T02:46:45.147Z,32.47
2018-10-21T02:49:15.186Z,34.67
2018-10-21T02:51:49.279Z,30.37
2018-10-21T02:54:22.387Z,30.80
2018-10-21T02:56:51.704Z,32.40
2018-10-21T02:59:21.387Z,33.00
2018-10-21T03:01:50.624Z,30.37
2018-10-21T03:04:21.400Z,32.47
2018-10-21T03:06:50.787Z,31.83
2018-10-21T03:09:20.080Z,31.47
2018-10-21T03:11:49.495Z,34.97
2018-10-21T03:14:18.566Z,35.27
2018-10-21T03:16:47.619Z,34.50
2018-10-21T03:19:16.682Z,36.47
2018-10-21T03:21:45.849Z,32.10
2018-10-21T03:24:14.994Z,34.17
2018-10-21T03:26:45.514Z,30.73
2018-10-21T03:29:14.524Z,30.80
2018-10-21T03:31:45.667Z,31.73
2018-10-21T03:34:14.715Z,34.43
2018-10-21T03:36:43.776Z,35.27
2018-10-21T03:39:13.367Z,33.13
2018-10-21T03:41:42.947Z,32.77
2018-10-21T03:44:12.032Z,34.03
2018-10-21T03:46:41.198Z,36.93
2018-10-21T03:49:10.402Z,33.63
2018-10-21T03:51:39.479Z,31.00
2018-10-21T03:54:08.822Z,35.77
2018-10-21T03:56:37.981Z,31.60
2018-10-21T03:59:07.152Z,33.73
2018-10-21T04:01:37.579Z,34.13
2018-10-21T04:04:07.337Z,34.27
2018-10-21T04:06:36.442Z,35.27
2018-10-21T04:09:07.608Z,37.57
2018-10-21T04:11:36.680Z,37.23
2018-10-21T04:14:08.771Z,37.60
2018-10-21T04:16:37.799Z,38.30
2018-10-21T04:19:07.160Z,35.87
2018-10-21T04:21:36.332Z,33.30
2018-10-21T04:24:05.451Z,31.30
2018-10-21T04:26:35.750Z,39.53
2018-10-21T04:29:05.220Z,39.60
2018-10-21T04:31:34.493Z,35.73
2018-10-21T04:34:03.724Z,40.87
2018-10-21T04:36:34.177Z,37.33
2018-10-21T04:40:13.844Z,35.73
2018-10-21T04:42:43.368Z,44.40
2018-10-21T04:45:13.403Z,42.33
2018-10-21T04:47:42.695Z,44.07
2018-10-21T04:50:12.609Z,39.17
2018-10-21T04:52:41.825Z,38.90
2018-10-21T04:55:14.065Z,38.27
2018-10-21T04:57:46.129Z,37.33
2018-10-21T05:00:19.288Z,39.87
2018-10-21T05:02:48.479Z,38.77
2018-10-21T05:05:17.664Z,36.30
2018-10-21T05:07:47.052Z,43.30
2018-10-21T05:10:24.265Z,46.37
2018-10-21T05:12:53.523Z,46.57
2018-10-21T05:15:23.780Z,45.77
2018-10-21T05:17:53.347Z,45.27
2018-10-21T05:20:22.556Z,43.40
2018-10-21T05:22:51.621Z,49.37
2018-10-21T05:25:20.947Z,44.70
2018-10-21T05:27:51.363Z,43.43
2018-10-21T05:30:20.534Z,44.17
2018-10-21T05:32:49.940Z,43.20
2018-10-21T05:35:19.913Z,36.07
2018-10-21T05:37:49.207Z,41.87
2018-10-21T05:40:22.493Z,39.43
2018-10-21T05:42:51.894Z,39.30
2018-10-21T05:45:21.068Z,38.20
2018-10-21T05:47:50.130Z,42.90
2018-10-21T05:50:19.214Z,38.83
2018-10-21T05:52:48.511Z,37.20
2018-10-21T05:55:17.708Z,36.80
2018-10-21T05:57:46.940Z,38.93
2018-10-21T06:00:17.549Z,43.67
2018-10-21T06:02:46.755Z,49.60
2018-10-21T06:05:33.500Z,53.00
2018-10-21T06:08:02.709Z,54.67
2018-10-21T06:10:32.852Z,53.13
2018-10-21T06:13:02.132Z,54.50
2018-10-21T06:15:31.542Z,55.00
2018-10-21T06:18:01.907Z,51.57
2018-10-21T06:20:33.712Z,51.87
2018-10-21T06:23:03.174Z,54.67
2018-10-21T06:25:32.614Z,55.00
2018-10-21T06:28:01.684Z,57.07
2018-10-21T06:30:31.172Z,53.23
2018-10-21T06:33:01.494Z,50.90
2018-10-21T06:35:30.632Z,51.60
2018-10-21T06:38:00.232Z,50.17
2018-10-21T06:40:29.306Z,52.33
2018-10-21T06:42:58.482Z,54.27
2018-10-21T06:45:27.855Z,55.77
2018-10-21T06:47:56.807Z,56.27
2018-10-21T06:50:26.032Z,54.20
2018-10-21T06:52:55.141Z,53.10
2018-10-21T06:55:24.224Z,58.53
2018-10-21T06:57:54.043Z,57.93
2018-10-21T07:00:23.975Z,58.10
2018-10-21T07:02:54.418Z,59.27
2018-10-21T07:05:34.616Z,51.00
2018-10-21T07:08:03.853Z,51.10
2018-10-21T07:10:34.159Z,45.43
2018-10-21T07:13:03.515Z,43.60
2018-10-21T07:15:32.855Z,42.23
2018-10-21T07:18:02.010Z,43.80
2018-10-21T07:20:32.974Z,44.70
2018-10-21T07:23:03.227Z,48.17
2018-10-21T07:25:32.420Z,50.93
2018-10-21T07:28:02.420Z,49.63
2018-10-21T07:30:31.725Z,49.23
2018-10-21T07:33:00.914Z,52.43
2018-10-21T07:35:31.302Z,50.77
2018-10-21T07:38:00.385Z,49.17
2018-10-21T07:40:30.263Z,54.30
2018-10-21T07:42:59.482Z,52.10
2018-10-21T07:45:28.648Z,58.23
2018-10-21T07:47:57.715Z,51.20
2018-10-21T07:50:26.878Z,57.30
2018-10-21T07:52:56.053Z,55.73
2018-10-21T07:55:25.991Z,62.57
2018-10-21T07:57:55.650Z,59.47
2018-10-21T08:00:24.643Z,70.37
2018-10-21T08:02:53.740Z,67.13
2018-10-21T08:06:34.654Z,67.33
2018-10-21T08:09:06.470Z,65.80
2018-10-21T08:11:35.672Z,63.30
2018-10-21T08:14:05.037Z,67.97
2018-10-21T08:16:34.202Z,67.67
2018-10-21T08:19:03.340Z,64.83
2018-10-21T08:21:32.842Z,63.30
2018-10-21T08:24:02.002Z,62.57
2018-10-21T08:26:31.110Z,60.77
2018-10-21T08:29:00.419Z,67.70
2018-10-21T08:31:29.957Z,61.93
2018-10-21T08:33:59.196Z,55.33
2018-10-21T08:36:29.102Z,53.10
2018-10-21T08:38:58.179Z,57.40
2018-10-21T08:41:27.339Z,50.37
2018-10-21T08:43:56.489Z,53.67
2018-10-21T08:46:25.970Z,56.23
2018-10-21T08:48:55.049Z,56.27
2018-10-21T08:51:24.374Z,59.20
2018-10-21T08:53:53.439Z,56.37
2018-10-21T08:56:22.736Z,54.43
2018-10-21T08:58:52.139Z,50.80
2018-10-21T09:01:21.305Z,54.33
2018-10-21T09:03:50.524Z,52.30
2018-10-21T09:06:19.937Z,53.27
2018-10-21T09:08:50.537Z,50.37
2018-10-21T09:11:19.838Z,50.50
2018-10-21T09:13:49.166Z,50.90
2018-10-21T09:16:18.966Z,54.00
2018-10-21T09:18:48.052Z,50.47
2018-10-21T09:21:17.151Z,52.93
2018-10-21T09:23:46.406Z,48.53
2018-10-21T09:26:17.528Z,54.53
2018-10-21T09:28:48.467Z,49.80
2018-10-21T09:31:17.869Z,54.17
2018-10-21T09:33:47.409Z,48.13
2018-10-21T09:36:16.851Z,49.77
2018-10-21T09:38:46.018Z,50.73
2018-10-21T09:41:15.275Z,48.83
2018-10-21T09:43:44.470Z,47.70
2018-10-21T09:46:13.672Z,53.30
2018-10-21T09:48:42.874Z,46.33
2018-10-21T09:51:12.061Z,48.90
2018-10-21T09:53:42.390Z,50.60
2018-10-21T09:56:11.642Z,45.77
2018-10-21T09:58:41.212Z,52.87
2018-10-21T10:01:15.676Z,50.80
2018-10-21T10:03:44.832Z,53.77
2018-10-21T10:06:13.953Z,48.63
2018-10-21T10:08:43.183Z,43.67
2018-10-21T10:11:12.438Z,45.33
2018-10-21T10:13:42.017Z,41.00
2018-10-21T10:16:11.253Z,38.20
2018-10-21T10:18:40.834Z,37.83
2018-10-21T10:21:09.943Z,39.30
2018-10-21T10:23:39.714Z,40.70
2018-10-21T10:26:09.539Z,42.93
2018-10-21T10:28:39.353Z,42.07
2018-10-21T10:31:08.900Z,39.80
2018-10-21T10:33:39.134Z,41.17
2018-10-21T10:36:09.244Z,33.30
2018-10-21T10:38:38.398Z,35.27
2018-10-21T10:41:07.783Z,34.87
2018-10-21T10:43:37.114Z,32.77
2018-10-21T10:46:06.605Z,31.93
2018-10-21T10:48:35.993Z,31.03
2018-10-21T10:51:06.581Z,30.80
2018-10-21T10:53:35.687Z,32.67
2018-10-21T10:56:04.752Z,28.53
2018-10-21T10:58:33.854Z,31.07
2018-10-21T11:01:04.990Z,23.97
2018-10-21T11:03:34.138Z,22.50
2018-10-21T11:06:03.362Z,18.93
2018-10-21T11:08:32.503Z,19.30
2018-10-21T11:11:01.718Z,24.73
2018-10-21T11:13:31.173Z,21.13
2018-10-21T11:16:00.411Z,22.37
2018-10-21T11:18:32.756Z,23.83
2018-10-21T11:21:02.212Z,21.13
2018-10-21T11:23:31.304Z,21.53
2018-10-21T11:26:01.334Z,25.40
2018-10-21T11:28:30.400Z,25.83
2018-10-21T11:30:59.951Z,24.37
2018-10-21T11:33:29.247Z,20.40
2018-10-21T11:35:58.429Z,26.30
2018-10-21T11:38:29.602Z,20.50
2018-10-21T11:40:58.873Z,23.13
2018-10-21T11:43:29.715Z,24.00
2018-10-21T11:46:00.098Z,26.47
2018-10-21T11:48:29.202Z,23.37
2018-10-21T11:50:58.334Z,23.00
2018-10-21T11:53:28.718Z,24.10
2018-10-21T11:55:58.087Z,22.47
2018-10-21T11:58:27.248Z,24.40
2018-10-21T12:00:56.454Z,24.53
2018-10-21T12:03:26.231Z,23.00
2018-10-21T12:05:55.282Z,22.00
2018-10-21T12:08:24.668Z,21.07
2018-10-21T12:10:53.811Z,17.87
2018-10-21T12:13:23.714Z,18.47
2018-10-21T12:15:52.859Z,15.33
2018-10-21T12:18:22.637Z,17.07
2018-10-21T12:20:52.222Z,16.67
2018-10-21T12:23:21.479Z,14.03
2018-10-21T12:25:52.731Z,16.40
2018-10-21T12:28:21.897Z,19.00
2018-10-21T12:30:51.056Z,21.13
2018-10-21T12:33:20.217Z,17.47
2018-10-21T12:35:49.538Z,16.67
2018-10-21T12:38:18.829Z,15.40
2018-10-21T12:40:49.572Z,15.63
2018-10-21T12:43:19.698Z,17.63
2018-10-21T12:45:48.836Z,17.37
2018-10-21T12:48:18.749Z,19.80
2018-10-21T12:50:49.535Z,23.97
2018-10-21T12:53:18.738Z,17.37
2018-10-21T12:55:49.311Z,18.07
2018-10-21T12:58:19.367Z,15.03
2018-10-21T13:00:48.627Z,14.93
2018-10-21T13:03:18.010Z,18.70
2018-10-21T13:05:47.192Z,19.20
2018-10-21T13:08:17.326Z,20.53
2018-10-21T13:10:46.373Z,17.43
2018-10-21T13:13:15.740Z,19.37
2018-10-21T13:15:44.871Z,17.13
2018-10-21T13:18:14.278Z,22.10
2018-10-21T13:20:43.603Z,16.43
2018-10-21T13:23:12.894Z,18.23
2018-10-21T13:25:42.093Z,18.03
2018-10-21T13:28:11.406Z,16.70
2018-10-21T13:30:40.484Z,20.13
2018-10-21T13:33:09.585Z,17.63
2018-10-21T13:35:38.741Z,16.90
2018-10-21T13:38:08.396Z,15.57
2018-10-21T13:40:37.706Z,15.80
2018-10-21T13:43:08.519Z,15.23
2018-10-21T13:45:37.672Z,16.17
2018-10-21T13:48:07.454Z,14.80
2018-10-21T13:50:37.331Z,15.73
2018-10-21T13:53:07.403Z,15.50
2018-10-21T13:55:36.501Z,16.63
2018-10-21T13:58:06.153Z,13.57
2018-10-21T14:00:35.273Z,17.33
2018-10-21T14:03:05.322Z,15.53
2018-10-21T14:05:34.586Z,15.40
2018-10-21T14:08:03.894Z,13.07
2018-10-21T14:10:33.311Z,19.73
2018-10-21T14:13:02.568Z,15.73
2018-10-21T14:15:31.695Z,12.27
2018-10-21T14:18:02.567Z,12.57
2018-10-21T14:20:31.907Z,12.87
2018-10-21T14:23:01.426Z,11.87
2018-10-21T14:25:33.255Z,15.27
2018-10-21T14:28:02.930Z,12.77
2018-10-21T14:30:32.526Z,14.90
2018-10-21T14:33:01.609Z,17.03
2018-10-21T14:35:30.815Z,14.90
2018-10-21T14:37:59.992Z,13.97
2018-10-21T14:40:29.187Z,13.00
2018-10-21T14:42:59.059Z,12.43
2018-10-21T14:45:29.610Z,13.53
2018-10-21T14:48:01.423Z,12.83
2018-10-21T14:50:30.680Z,14.87
2018-10-21T14:52:59.818Z,12.13
2018-10-21T14:55:28.995Z,13.53
2018-10-21T14:57:58.047Z,17.10
2018-10-21T15:00:27.350Z,13.97
2018-10-21T15:02:56.506Z,12.80
2018-10-21T15:05:25.593Z,13.47
2018-10-21T15:07:54.750Z,13.77
2018-10-21T15:10:25.160Z,13.73
2018-10-21T15:12:54.498Z,15.07
2018-10-21T15:15:23.892Z,15.03
2018-10-21T15:17:53.090Z,12.27
2018-10-21T15:20:22.298Z,13.53
2018-10-21T15:22:51.633Z,13.03
2018-10-21T15:25:20.745Z,15.37
2018-10-21T15:27:49.908Z,13.00
2018-10-21T15:30:19.137Z,15.20
2018-10-21T15:32:48.732Z,12.40
2018-10-21T15:35:17.942Z,13.07
2018-10-21T15:37:47.207Z,11.47
2018-10-21T15:40:16.390Z,11.80
2018-10-21T15:42:45.849Z,13.77
2018-10-21T15:45:14.872Z,16.77
2018-10-21T15:47:44.151Z,13.27
2018-10-21T15:50:13.344Z,12.73
2018-10-21T15:52:44.742Z,15.03
2018-10-21T15:55:13.927Z,11.73
2018-10-21T15:57:43.154Z,12.47
2018-10-21T16:00:13.084Z,12.80
2018-10-21T16:02:43.495Z,12.73
2018-10-21T16:05:12.714Z,13.40
2018-10-21T16:07:42.017Z,13.07
2018-10-21T16:10:11.556Z,10.83
2018-10-21T16:12:40.900Z,11.67
2018-10-21T16:15:13.370Z,9.57
2018-10-21T16:17:43.786Z,10.30
2018-10-21T16:20:13.076Z,11.57
2018-10-21T16:22:43.365Z,11.50
2018-10-21T16:25:13.778Z,10.27
2018-10-21T16:27:43.157Z,11.03
2018-10-21T16:30:14.918Z,10.93
2018-10-21T16:32:44.665Z,9.73
2018-10-21T16:35:14.380Z,11.80
2018-10-21T16:37:43.719Z,10.47
2018-10-21T16:40:15.307Z,13.27
2018-10-21T16:42:45.917Z,11.90
2018-10-21T16:45:15.824Z,10.73
2018-10-21T16:47:44.985Z,10.83
2018-10-21T16:50:15.902Z,10.47
2018-10-21T16:52:46.059Z,10.67
2018-10-21T16:55:16.348Z,13.13
2018-10-21T16:57:47.138Z,9.37
2018-10-21T17:00:18.496Z,11.40
2018-10-21T17:02:47.600Z,10.03
2018-10-21T17:05:16.854Z,11.73
2018-10-21T17:07:45.948Z,13.57
2018-10-21T17:10:15.377Z,14.00
2018-10-21T17:12:44.691Z,16.73
2018-10-21T17:15:13.879Z,17.60
2018-10-21T17:17:43.619Z,20.10
2018-10-21T17:20:14.993Z,18.03
2018-10-21T17:22:44.992Z,17.87
2018-10-21T17:25:16.031Z,19.53
2018-10-21T17:27:45.156Z,17.00
2018-10-21T17:30:17.326Z,17.43
2018-10-21T17:32:47.183Z,16.87
2018-10-21T17:35:16.342Z,19.27
2018-10-21T17:37:45.696Z,19.73
2018-10-21T17:40:14.998Z,20.87
2018-10-21T17:42:44.199Z,18.10
2018-10-21T17:45:14.744Z,17.90
2018-10-21T17:47:44.194Z,17.00
2018-10-21T17:50:14.778Z,18.73
2018-10-21T17:52:44.585Z,19.80
2018-10-21T17:55:14.223Z,15.83
2018-10-21T17:57:43.358Z,18.47
2018-10-21T18:00:13.398Z,19.47
2018-10-21T18:02:42.712Z,17.17
2018-10-21T18:05:13.510Z,17.17
2018-10-21T18:07:43.163Z,20.27
2018-10-21T18:10:12.921Z,24.30
2018-10-21T18:12:42.012Z,21.10
2018-10-21T18:15:11.882Z,18.60
2018-10-21T18:17:41.667Z,18.83
2018-10-21T18:20:12.270Z,20.07
2018-10-21T18:22:41.457Z,18.13
2018-10-21T18:25:11.196Z,16.53
2018-10-21T18:27:41.153Z,19.00
2018-10-21T18:30:11.783Z,18.47
2018-10-21T18:32:40.880Z,18.70
2018-10-21T18:35:13.766Z,18.57
2018-10-21T18:37:43.045Z,18.13
2018-10-21T18:40:13.895Z,18.60
2018-10-21T18:42:43.470Z,17.67
2018-10-21T18:45:13.924Z,18.80
2018-10-21T18:47:45.515Z,20.03
2018-10-21T18:50:16.008Z,21.40
2018-10-21T18:52:45.210Z,21.47
2018-10-21T18:55:14.757Z,20.10
2018-10-21T18:57:43.898Z,18.53
2018-10-21T19:00:16.594Z,22.13
2018-10-21T19:02:45.697Z,18.67
2018-10-21T19:05:15.624Z,21.10
2018-10-21T19:07:45.077Z,20.40
2018-10-21T19:10:15.852Z,23.23
2018-10-21T19:12:45.105Z,21.50
2018-10-21T19:15:14.591Z,21.70
2018-10-21T19:17:43.803Z,20.03
2018-10-21T19:20:14.782Z,20.50
2018-10-21T19:22:44.053Z,20.13
2018-10-21T19:25:14.674Z,22.03
2018-10-21T19:27:45.217Z,20.60
2018-10-21T19:30:15.195Z,21.80
2018-10-21T19:32:44.680Z,21.80
2018-10-21T19:35:15.001Z,23.87
2018-10-21T19:37:44.495Z,22.57
2018-10-21T19:40:15.931Z,21.90
2018-10-21T19:42:45.252Z,22.73
2018-10-21T19:45:15.174Z,31.63
2018-10-21T19:47:44.463Z,33.47
2018-10-21T19:50:14.768Z,33.70
2018-10-21T19:52:44.562Z,33.80
2018-10-21T19:55:15.431Z,32.90
2018-10-21T19:57:44.556Z,30.33
2018-10-21T20:00:15.257Z,30.00
2018-10-21T20:02:44.895Z,31.13
2018-10-21T20:05:15.552Z,26.43
2018-10-21T20:07:44.791Z,28.57
2018-10-21T20:10:14.888Z,25.83
2018-10-21T20:12:43.971Z,25.70
2018-10-21T20:15:13.933Z,26.17
2018-10-21T20:17:43.886Z,24.63
2018-10-21T20:20:13.459Z,21.43
2018-10-21T20:22:42.788Z,21.77
2018-10-21T20:25:12.133Z,22.63
2018-10-21T20:27:41.302Z,20.47
2018-10-21T20:30:11.908Z,20.63
2018-10-21T20:32:41.418Z,20.90
2018-10-21T20:35:11.628Z,22.13
2018-10-21T20:37:40.931Z,24.00
2018-10-21T20:40:10.669Z,23.40
2018-10-21T20:42:40.021Z,21.47
2018-10-21T20:45:10.574Z,20.97
2018-10-21T20:47:40.644Z,23.53
2018-10-21T20:50:10.100Z,22.47
2018-10-21T20:52:39.365Z,21.87
2018-10-21T20:55:08.812Z,22.43
2018-10-21T20:57:37.939Z,22.90
2018-10-21T21:00:07.111Z,26.13
2018-10-21T21:02:37.519Z,22.50
2018-10-21T21:05:08.291Z,24.43
2018-10-21T21:07:37.942Z,23.77
2018-10-21T21:10:08.053Z,23.17
2018-10-21T21:12:37.129Z,27.40
2018-10-21T21:15:07.147Z,22.10
2018-10-21T21:17:37.103Z,22.33
2018-10-21T21:20:06.990Z,21.57
2018-10-21T21:22:36.311Z,22.43
2018-10-21T21:25:05.998Z,22.53
2018-10-21T21:27:35.313Z,22.27
2018-10-21T21:30:05.250Z,21.60
2018-10-21T21:32:34.616Z,21.10
2018-10-21T21:35:05.879Z,21.10
2018-10-21T21:37:35.301Z,21.90
2018-10-21T21:40:06.329Z,21.63
2018-10-21T21:42:36.687Z,22.07
2018-10-21T21:45:06.406Z,22.90
2018-10-21T21:47:36.321Z,23.40
2018-10-21T21:50:06.398Z,21.20
2018-10-21T21:52:35.714Z,21.03
2018-10-21T21:55:05.273Z,21.60
2018-10-21T21:57:35.177Z,21.37
2018-10-21T22:00:05.758Z,24.23
2018-10-21T22:02:36.016Z,22.83
2018-10-21T22:05:08.720Z,21.43
2018-10-21T22:07:39.081Z,23.00
2018-10-21T22:10:09.171Z,20.87
2018-10-21T22:12:39.173Z,24.47
2018-10-21T22:15:08.442Z,21.70
2018-10-21T22:17:39.162Z,20.93
2018-10-21T22:20:08.441Z,23.00
2018-10-21T22:22:38.771Z,22.33
2018-10-21T22:25:08.097Z,22.23
2018-10-21T22:27:37.877Z,23.73
2018-10-21T22:30:08.596Z,21.60
2018-10-21T22:32:37.606Z,20.67
2018-10-21T22:35:07.791Z,21.63
2018-10-21T22:37:38.301Z,21.97
2018-10-21T22:40:08.503Z,22.43
2018-10-21T22:42:38.184Z,23.93
2018-10-21T22:45:09.389Z,21.57
2018-10-21T22:47:38.683Z,20.70
2018-10-21T22:50:09.902Z,23.40
2018-10-21T22:52:40.349Z,23.37
2018-10-21T22:55:09.523Z,22.77
2018-10-21T22:57:38.749Z,21.30
2018-10-21T23:00:09.185Z,21.47
2018-10-21T23:02:39.265Z,24.53
2018-10-21T23:05:09.497Z,23.40
2018-10-21T23:07:39.713Z,21.87
2018-10-21T23:10:10.433Z,22.33
2018-10-21T23:12:39.732Z,21.43
2018-10-21T23:15:09.169Z,20.83
2018-10-21T23:17:38.879Z,22.13
2018-10-21T23:20:09.601Z,20.03
2018-10-21T23:22:38.901Z,21.30
2018-10-21T23:25:08.818Z,23.47
2018-10-21T23:27:38.188Z,22.30
2018-10-21T23:30:08.054Z,21.97
2018-10-21T23:32:37.563Z,23.63
2018-10-21T23:35:07.435Z,24.10
2018-10-21T23:37:36.842Z,24.93
2018-10-21T23:40:07.151Z,24.20
2018-10-21T23:42:36.337Z,22.87
2018-10-21T23:45:05.865Z,22.70
2018-10-21T23:47:35.154Z,22.97
2018-10-21T23:50:04.386Z,23.27
2018-10-21T23:52:34.521Z,21.60
2018-10-21T23:55:05.236Z,22.70
2018-10-21T23:57:34.300Z,23.33
